Time;durP1;ratioP1;P1;durP2;ratioP2;P2;SDS_P1;SDS_P2;PMS_P1;PMS_P2;Temp;Humidity;BMP_temperature;BMP_pressure;BME280_temperature;BME280_humidity;BME280_pressure;Samples;Min_cycle;Max_cycle;Signal;HPM_P1;HPM_P2
2021/06/29 01:57:39;;;;;;;20.08;5.82;;;;;;;16.65;83.80;92509.31;4704696;30;20464;-93
2021/06/29 02:03:53;;;;;;;9.70;5.22;;;;;;;16.59;83.95;92523.81;4717895;30;20057;-92
2021/06/29 02:11:10;;;;;;;;;;;;;;;;;;;;;
2021/06/29 02:14:32;;;;;;;;;;;;;;;;;;;;;
2021/06/29 02:17:27;;;;;;;12.30;4.90;;;;;;;16.39;83.41;92499.72;4651443;30;20061;-93
2021/06/29 02:20:55;;;;;;;14.23;5.22;;;;;;;16.40;83.10;92493.31;4648072;30;20053;-92
2021/06/29 02:24:03;;;;;;;;;;;;;;;;;;;;;
2021/06/29 02:27:18;;;;;;;;;;;;;;;;;;;;;
2021/06/29 02:30:04;;;;;;;10.25;5.30;;;;;;;16.30;85.02;92462.03;4741718;30;20051;-94
2021/06/29 02:40:43;;;;;;;16.55;5.40;;;;;;;16.15;83.84;92441.47;4768419;30;20128;-93
2021/06/29 02:48:04;;;;;;;;;;;;;;;;;;;;;
2021/06/29 02:51:48;;;;;;;;;;;;;;;;;;;;;
2021/06/29 02:55:43;;;;;;;;;;;;;;;;;;;;;
2021/06/29 03:03:26;;;;;;;;;;;;;;;;;;;;;
2021/06/29 03:14:55;;;;;;;;;;;;;;;;;;;;;
2021/06/29 03:25:50;;;;;;;10.88;5.00;;;;;;;16.19;81.15;92471.41;4633157;30;20113;-93
2021/06/29 03:40:52;;;;;;;;;;;;;;;;;;;;;
2021/06/29 03:51:56;;;;;;;;;;;;;;;;;;;;;
2021/06/29 03:59:16;;;;;;;;;;;;;;;;;;;;;
2021/06/29 04:02:44;;;;;;;10.70;4.80;;;;;;;16.05;82.09;92449.75;4648093;30;20054;-93
2021/06/29 04:09:37;;;;;;;;;;;;;;;;;;;;;
2021/06/29 04:43:35;;;;;;;;;;;;;;;;;;;;;
2021/06/29 04:55:36;;;;;;;;;;;;;;;;;;;;;
2021/06/29 04:59:00;;;;;;;;;;;;;;;;;;;;;
2021/06/29 05:49:25;;;;;;;;;;;;;;;;;;;;;
2021/06/29 05:52:22;;;;;;;14.55;3.90;;;;;;;18.76;73.76;92472.94;4568410;31;20133;-91
2021/06/29 05:59:21;;;;;;;;;;;;;;;;;;;;;
2021/06/29 07:47:36;;;;;;;6.85;3.42;;;;;;;23.18;50.62;92474.38;4787043;29;20225;-95
2021/06/29 07:50:05;;;;;;;12.77;4.28;;;;;;;23.49;49.01;92460.56;4787248;29;20151;-77
2021/06/29 07:52:30;;;;;;;7.88;3.97;;;;;;;24.14;48.29;92466.50;4782981;29;20788;-77
2021/06/29 07:54:56;;;;;;;9.13;3.65;;;;;;;24.25;47.45;92461.19;4785218;29;20055;-77
2021/06/29 07:57:21;;;;;;;9.95;4.00;;;;;;;24.25;47.20;92467.34;4782137;29;20509;-77
2021/06/29 07:59:47;;;;;;;8.95;4.18;;;;;;;24.20;47.90;92464.22;4782343;29;20056;-77
2021/06/29 08:02:13;;;;;;;14.30;4.65;;;;;;;23.53;47.67;92465.19;4783836;29;20061;-77
2021/06/29 08:04:40;;;;;;;8.80;4.70;;;;;;;23.85;47.86;92466.28;4784843;30;20524;-78
2021/06/29 08:07:06;;;;;;;11.55;5.13;;;;;;;24.06;48.54;92472.91;4784444;29;20066;-78
2021/06/29 08:09:32;;;;;;;10.50;4.70;;;;;;;24.19;48.29;92463.47;4784523;30;20472;-77
2021/06/29 08:11:58;;;;;;;9.52;5.38;;;;;;;23.44;48.93;92458.25;4767353;30;20078;-78
2021/06/29 08:14:23;;;;;;;16.63;5.35;;;;;;;23.98;50.04;92466.75;4790216;29;20086;-79
2021/06/29 08:16:49;;;;;;;10.52;5.20;;;;;;;24.19;48.06;92466.16;4786802;29;20062;-78
2021/06/29 08:19:14;;;;;;;9.70;5.03;;;;;;;23.58;48.91;92465.63;4787091;29;20082;-78
2021/06/29 08:21:40;;;;;;;12.98;6.80;;;;;;;23.54;47.64;92450.69;4768392;30;20109;-79
2021/06/29 08:24:06;;;;;;;11.05;5.88;;;;;;;23.79;50.56;92449.03;4783088;29;20055;-78
2021/06/29 08:26:32;;;;;;;15.27;6.00;;;;;;;23.60;50.46;92455.34;4785085;29;20070;-77
2021/06/29 08:28:58;;;;;;;12.43;5.57;;;;;;;23.82;49.91;92450.97;4783183;29;20055;-77
2021/06/29 08:31:24;;;;;;;8.82;6.20;;;;;;;23.33;50.31;92446.69;4786419;29;20579;-79
2021/06/29 08:33:53;;;;;;;11.10;6.45;;;;;;;23.94;49.95;92443.81;4783723;29;20058;-77
2021/06/29 08:36:20;;;;;;;10.52;5.93;;;;;;;24.16;49.29;92442.84;4790643;29;20042;-76
2021/06/29 08:38:46;;;;;;;11.05;6.28;;;;;;;24.34;48.32;92437.59;4798195;29;20051;-78
2021/06/29 08:41:13;;;;;;;13.27;6.40;;;;;;;24.65;47.98;92436.25;4793154;29;20082;-78
2021/06/29 08:43:40;;;;;;;13.50;6.30;;;;;;;24.61;47.96;92435.47;4788423;29;20494;-78
2021/06/29 08:46:06;;;;;;;13.55;6.05;;;;;;;24.91;48.17;92442.47;4791192;29;20406;-77
2021/06/29 08:48:31;;;;;;;14.38;6.78;;;;;;;24.79;48.61;92445.47;4787509;29;20107;-78
2021/06/29 08:50:59;;;;;;;11.55;5.82;;;;;;;24.80;48.71;92439.00;4783172;29;20074;-78
2021/06/29 08:53:25;;;;;;;15.38;6.80;;;;;;;24.44;48.41;92436.88;4768280;30;20063;-81
2021/06/29 08:55:52;;;;;;;9.45;6.30;;;;;;;23.89;48.93;92434.25;4783287;29;20506;-80
2021/06/29 08:58:22;;;;;;;12.40;6.20;;;;;;;24.04;50.21;92435.09;4782398;29;20154;-78
2021/06/29 09:00:49;;;;;;;18.90;7.40;;;;;;;23.52;50.47;92432.34;4788524;29;20057;-78
2021/06/29 09:03:15;;;;;;;12.60;7.50;;;;;;;23.57;50.29;92429.34;4770159;29;20050;-76
2021/06/29 09:05:45;;;;;;;12.73;5.95;;;;;;;24.03;49.82;92420.19;4786741;29;20062;-78
2021/06/29 09:08:16;;;;;;;14.90;6.88;;;;;;;24.45;49.44;92426.94;4789613;29;20486;-76
2021/06/29 09:10:43;;;;;;;10.73;6.75;;;;;;;24.02;50.54;92427.44;4785359;29;20050;-77
2021/06/29 09:13:10;;;;;;;15.95;7.70;;;;;;;23.53;51.94;92430.44;4784883;29;20058;-76
2021/06/29 09:15:39;;;;;;;12.77;6.90;;;;;;;23.50;52.19;92434.63;4784321;29;20047;-76
2021/06/29 09:18:05;;;;;;;16.30;7.60;;;;;;;23.28;54.21;92428.31;4774035;30;20151;-76
2021/06/29 09:20:37;;;;;;;12.00;6.95;;;;;;;23.65;54.08;92424.84;4783965;29;20515;-77
2021/06/29 09:23:11;;;;;;;14.07;7.53;;;;;;;23.30;54.13;92426.03;4777135;30;20119;-76
2021/06/29 09:25:37;;;;;;;18.55;8.15;;;;;;;23.04;53.87;92425.03;4786153;29;20043;-76
2021/06/29 09:28:04;;;;;;;11.93;7.68;;;;;;;23.21;55.38;92420.22;4787385;29;20387;-77
2021/06/29 09:30:31;;;;;;;10.70;7.47;;;;;;;23.38;54.76;92426.91;4785997;29;20429;-75
2021/06/29 09:33:15;;;;;;;13.82;6.63;;;;;;;23.34;53.68;92420.75;4769363;30;20562;-76
2021/06/29 09:35:43;;;;;;;13.15;8.45;;;;;;;23.62;52.51;92410.31;4786977;29;20043;-76
2021/06/29 09:38:19;;;;;;;15.45;7.47;;;;;;;23.78;53.84;92420.78;4785274;29;20047;-76
2021/06/29 09:40:47;;;;;;;11.93;7.45;;;;;;;23.34;53.94;92420.75;4767172;30;20047;-75
2021/06/29 09:43:17;;;;;;;14.63;8.43;;;;;;;23.07;55.03;92408.28;4787300;30;20059;-76
2021/06/29 09:45:45;;;;;;;17.50;9.27;;;;;;;23.56;52.35;92405.69;4784633;30;20105;-75
2021/06/29 09:48:17;;;;;;;11.73;8.15;;;;;;;23.12;55.20;92411.75;4783921;29;20067;-76
2021/06/29 09:50:44;;;;;;;14.88;7.88;;;;;;;23.74;54.74;92411.19;4786017;29;20180;-78
2021/06/29 09:53:23;;;;;;;16.27;8.15;;;;;;;23.66;54.34;92405.78;4783933;29;20094;-76
2021/06/29 09:55:52;;;;;;;12.20;8.45;;;;;;;23.44;54.68;92412.84;4771157;29;20157;-76
2021/06/29 09:58:19;;;;;;;18.15;10.40;;;;;;;23.46;52.61;92402.56;4786618;29;20054;-76
2021/06/29 10:00:51;;;;;;;13.70;8.70;;;;;;;23.05;55.81;92405.19;4785758;29;20142;-85
2021/06/29 10:03:26;;;;;;;15.25;9.75;;;;;;;23.47;54.00;92403.31;4766697;30;20047;-80
2021/06/29 10:05:54;;;;;;;15.05;8.77;;;;;;;23.46;55.06;92402.56;4777451;29;20077;-78
2021/06/29 10:08:26;;;;;;;16.10;8.95;;;;;;;23.90;52.65;92396.44;4782270;30;20039;-77
2021/06/29 10:11:16;;;;;;;20.50;8.55;;;;;;;23.77;52.34;92389.06;4787543;29;20562;-78
2021/06/29 10:13:49;;;;;;;15.02;7.85;;;;;;;23.97;54.76;92386.94;4789325;29;20095;-77
2021/06/29 10:16:15;;;;;;;;;;;;;;;23.97;52.16;92384.25;4795791;29;20040;-77
2021/06/29 10:18:54;;;;;;;16.42;9.13;;;;;;;23.79;51.89;92387.56;4783949;29;19968;-77
2021/06/29 10:21:22;;;;;;;19.25;9.32;;;;;;;23.32;55.17;92393.63;4780368;30;20047;-77
2021/06/29 10:23:54;;;;;;;17.65;10.75;;;;;;;23.09;53.86;92399.91;4784741;29;20047;-78
2021/06/29 10:26:22;;;;;;;20.02;10.52;;;;;;;22.88;54.82;92395.09;4771516;30;20043;-77
2021/06/29 10:28:49;;;;;;;20.08;9.93;;;;;;;23.10;55.44;92390.00;4784426;29;20051;-76
2021/06/29 10:31:22;;;;;;;20.20;10.68;;;;;;;23.69;53.34;92383.66;4785108;30;20043;-77
2021/06/29 10:33:49;;;;;;;16.92;10.43;;;;;;;23.96;52.27;92374.69;4781179;29;20139;-77
2021/06/29 10:36:15;;;;;;;17.45;9.45;;;;;;;23.72;53.04;92368.78;4786904;30;20051;-78
2021/06/29 10:38:43;;;;;;;17.98;10.15;;;;;;;24.18;52.14;92360.31;4776721;30;20048;-78
2021/06/29 10:41:09;;;;;;;18.38;9.75;;;;;;;24.24;51.69;92363.41;4770936;29;20047;-78
2021/06/29 10:43:36;;;;;;;16.75;10.20;;;;;;;24.10;53.92;92345.38;4787491;30;20140;-79
2021/06/29 10:46:02;;;;;;;17.25;9.20;;;;;;;24.23;54.25;92337.81;4790225;29;20063;-78
2021/06/29 10:48:29;;;;;;;16.40;11.07;;;;;;;24.01;53.32;92335.00;4771276;30;20053;-79
2021/06/29 10:50:57;;;;;;;20.02;11.15;;;;;;;23.92;52.12;92325.81;4794562;29;20054;-79
2021/06/29 10:53:37;;;;;;;16.08;10.02;;;;;;;24.62;51.58;92313.91;4792729;29;20047;-79
2021/06/29 10:56:07;;;;;;;26.70;10.68;;;;;;;24.75;50.48;92306.31;4778998;30;20130;-79
2021/06/29 10:58:41;;;;;;;17.63;10.02;;;;;;;24.61;53.01;92311.59;4794471;30;20252;-79
2021/06/29 11:01:30;;;;;;;16.25;9.52;;;;;;;24.76;52.41;92301.72;4774601;30;20051;-79
2021/06/29 11:03:59;;;;;;;20.45;9.40;;;;;;;24.49;53.00;92310.78;4792811;29;20071;-78
2021/06/29 11:06:46;;;;;;;16.38;9.68;;;;;;;23.91;54.96;92300.97;4789672;30;20051;-79
2021/06/29 11:09:18;;;;;;;17.38;9.80;;;;;;;23.51;53.99;92309.84;4793749;29;20441;-78
2021/06/29 11:12:23;;;;;;;17.92;10.02;;;;;;;23.26;56.71;92307.78;4769965;30;20054;-79
2021/06/29 11:14:50;;;;;;;18.75;9.85;;;;;;;22.84;58.16;92300.88;4783048;30;20048;-78
2021/06/29 11:17:22;;;;;;;15.43;9.25;;;;;;;23.23;57.45;92300.47;4785556;30;20419;-78
2021/06/29 11:20:06;;;;;;;14.98;9.13;;;;;;;23.61;56.92;92303.81;4785793;30;20058;-78
2021/06/29 11:22:58;;;;;;;19.70;10.65;;;;;;;24.08;54.48;92291.50;4782698;29;20097;-79
2021/06/29 11:25:36;;;;;;;22.73;8.65;;;;;;;23.69;55.39;92308.06;4782335;30;20503;-81
2021/06/29 11:28:02;;;;;;;15.13;10.18;;;;;;;23.18;56.90;92300.81;4785765;29;20039;-78
2021/06/29 11:30:57;;;;;;;21.08;10.18;;;;;;;23.22;57.16;92301.63;4786707;29;20402;-79
2021/06/29 11:33:38;;;;;;;18.25;9.55;;;;;;;23.14;56.56;92289.34;4786618;30;20478;-79
2021/06/29 11:36:32;;;;;;;19.03;9.50;;;;;;;22.74;58.69;92275.63;4785011;29;20047;-78
2021/06/29 11:39:17;;;;;;;17.13;9.10;;;;;;;22.75;58.30;92276.41;4781057;30;20307;-80
2021/06/29 11:41:52;;;;;;;10.68;7.50;;;;;;;22.56;61.09;92291.47;4786605;30;20049;-80
2021/06/29 11:44:18;;;;;;;16.90;7.70;;;;;;;22.11;61.47;92287.88;4787081;29;20123;-78
2021/06/29 11:46:55;;;;;;;18.70;7.40;;;;;;;22.38;62.04;92282.50;4785485;29;20047;-79
2021/06/29 11:49:49;;;;;;;11.95;6.40;;;;;;;22.60;60.27;92292.25;4767906;30;20047;-80
2021/06/29 11:52:16;;;;;;;14.00;6.70;;;;;;;22.73;60.46;92308.78;4757835;30;20515;-76
2021/06/29 11:54:44;;;;;;;13.23;7.28;;;;;;;22.71;59.59;92295.03;4766133;30;20047;-76
2021/06/29 11:57:39;;;;;;;13.25;6.65;;;;;;;22.82;59.55;92295.16;4765499;30;20044;-76
2021/06/29 12:00:14;;;;;;;15.05;7.22;;;;;;;22.79;60.01;92274.53;4766973;30;20134;-79
2021/06/29 12:02:40;;;;;;;20.33;9.13;;;;;;;22.50;58.66;92266.25;4766295;30;20123;-79
2021/06/29 12:05:13;;;;;;;20.27;9.73;;;;;;;22.19;58.55;92278.81;4765173;30;20463;-78
2021/06/29 12:07:38;;;;;;;13.90;8.60;;;;;;;22.21;59.98;92291.81;4749391;30;20439;-76
2021/06/29 12:10:44;;;;;;;17.70;8.38;;;;;;;22.12;60.43;92286.75;4763712;30;20063;-76
2021/06/29 12:13:12;;;;;;;14.75;7.53;;;;;;;22.15;61.44;92286.00;4768618;30;20051;-78
2021/06/29 12:15:40;;;;;;;12.70;7.93;;;;;;;22.02;61.43;92274.03;4769903;30;20044;-77
2021/06/29 12:18:11;;;;;;;17.15;8.63;;;;;;;21.82;58.11;92282.19;4765928;30;20522;-77
2021/06/29 12:20:48;;;;;;;13.00;8.48;;;;;;;21.81;60.93;92293.97;4766454;30;20536;-77
2021/06/29 12:23:16;;;;;;;15.02;8.52;;;;;;;21.74;60.62;92293.13;4765821;30;20054;-77
2021/06/29 12:25:47;;;;;;;18.80;7.57;;;;;;;21.68;59.53;92266.00;4766376;30;20096;-77
2021/06/29 12:28:26;;;;;;;17.33;7.65;;;;;;;21.51;58.39;92266.56;4765930;30;20052;-77
2021/06/29 12:30:54;;;;;;;15.77;7.30;;;;;;;21.40;59.54;92275.13;4766215;30;20055;-76
2021/06/29 12:33:23;;;;;;;14.93;6.65;;;;;;;21.50;56.21;92265.00;4749507;30;20056;-77
2021/06/29 12:35:55;;;;;;;13.93;7.10;;;;;;;21.48;58.22;92270.69;4754827;30;20695;-76
2021/06/29 12:38:24;;;;;;;18.25;7.53;;;;;;;21.31;59.52;92298.56;4748518;30;20071;-76
2021/06/29 12:40:54;;;;;;;15.10;7.18;;;;;;;21.35;59.99;92301.28;4766442;30;20040;-77
2021/06/29 12:43:38;;;;;;;17.42;7.05;;;;;;;21.35;60.52;92286.06;4751979;30;20055;-75
2021/06/29 12:46:19;;;;;;;16.48;7.20;;;;;;;21.35;61.89;92294.06;4749028;30;20126;-77
2021/06/29 12:49:11;;;;;;;10.95;6.00;;;;;;;20.11;66.55;92286.19;4743294;30;1160045;-76
2021/06/29 12:51:45;;;;;;;10.57;5.78;;;;;;;19.83;67.33;92299.66;4786477;29;20039;-77
2021/06/29 12:54:13;;;;;;;11.98;5.03;;;;;;;19.37;68.42;92317.22;4751800;30;20075;-77
2021/06/29 12:56:47;;;;;;;9.77;4.40;;;;;;;18.85;69.88;92343.66;4777003;29;20047;-77
2021/06/29 12:59:15;;;;;;;10.20;3.88;;;;;;;18.47;70.25;92299.88;4783798;30;20051;-77
2021/06/29 13:01:43;;;;;;;10.07;3.70;;;;;;;18.14;72.92;92321.31;4785947;29;20104;-76
2021/06/29 13:04:11;;;;;;;9.50;2.92;;;;;;;17.77;73.82;92341.81;4782966;29;20055;-77
2021/06/29 13:06:38;;;;;;;11.25;3.30;;;;;;;17.57;74.94;92338.94;4770327;30;20391;-76
2021/06/29 13:09:16;;;;;;;10.38;3.30;;;;;;;17.42;75.53;92329.81;4770869;30;20055;-77
2021/06/29 13:11:55;;;;;;;10.75;3.95;;;;;;;17.36;77.02;92330.34;4785349;30;20055;-77
2021/06/29 13:14:20;;;;;;;9.60;3.80;;;;;;;17.20;77.27;92349.56;4786927;30;20043;-77
2021/06/29 13:16:46;;;;;;;12.07;4.68;;;;;;;17.22;76.41;92363.19;4786078;30;20521;-78
2021/06/29 13:19:21;;;;;;;10.77;5.10;;;;;;;17.24;76.98;92384.03;4786453;30;20516;-77
2021/06/29 13:22:00;;;;;;;15.10;6.32;;;;;;;17.26;76.59;92361.44;4785740;30;20043;-76
2021/06/29 13:24:36;;;;;;;12.80;6.07;;;;;;;17.37;78.06;92339.84;4787457;30;20051;-78
2021/06/29 13:27:04;;;;;;;11.63;5.63;;;;;;;17.43;77.75;92335.88;4769247;30;20055;-77
2021/06/29 13:29:37;;;;;;;12.30;5.60;;;;;;;17.46;79.09;92345.78;4767326;30;20526;-77
2021/06/29 13:32:16;;;;;;;22.20;6.30;;;;;;;17.59;78.56;92365.09;4769083;30;20055;-78
2021/06/29 13:34:42;;;;;;;22.75;6.47;;;;;;;17.77;79.87;92365.63;4769178;30;20050;-77
2021/06/29 13:37:26;;;;;;;13.98;6.10;;;;;;;17.98;79.13;92374.22;4768660;30;20415;-78
2021/06/29 13:39:53;;;;;;;14.55;5.72;;;;;;;18.42;80.37;92390.22;4768402;30;20123;-78
2021/06/29 13:42:27;;;;;;;18.50;6.35;;;;;;;18.91;76.45;92400.66;4771003;30;20079;-77
2021/06/29 13:44:53;;;;;;;12.75;5.80;;;;;;;18.93;74.50;92392.34;4768572;30;20082;-77
2021/06/29 13:47:19;;;;;;;19.77;6.10;;;;;;;18.81;75.34;92401.13;4773327;30;20689;-77
2021/06/29 13:49:57;;;;;;;12.40;5.88;;;;;;;19.07;75.38;92394.56;4790649;30;20071;-77
2021/06/29 13:52:23;;;;;;;21.48;6.63;;;;;;;19.41;74.74;92389.72;4791264;30;20154;-77
2021/06/29 13:55:11;;;;;;;10.32;5.95;;;;;;;19.71;74.07;92385.53;4790974;30;20043;-78
2021/06/29 13:57:39;;;;;;;12.38;7.70;;;;;;;19.86;77.93;92367.25;4791539;30;20104;-78
2021/06/29 14:00:31;;;;;;;14.57;6.40;;;;;;;20.28;75.46;92367.38;4791086;30;20044;-77
2021/06/29 14:03:01;;;;;;;12.43;6.35;;;;;;;20.61;71.65;92357.41;4791528;30;20415;-79
2021/06/29 14:05:36;;;;;;;10.48;5.88;;;;;;;21.06;71.65;92362.03;4791632;30;20043;-79
2021/06/29 14:08:29;;;;;;;15.55;5.80;;;;;;;21.26;70.81;92364.66;4790824;30;20043;-78
2021/06/29 14:11:00;;;;;;;10.25;5.10;;;;;;;21.25;67.91;92363.09;4787660;30;20047;-78
2021/06/29 14:13:28;;;;;;;12.98;5.43;;;;;;;21.17;68.86;92348.91;4792217;30;20043;-77
2021/06/29 14:15:54;;;;;;;9.75;5.63;;;;;;;21.67;67.67;92338.31;4776032;30;20077;-77
2021/06/29 14:18:22;;;;;;;13.52;5.50;;;;;;;21.94;68.35;92333.72;4792321;30;20048;-80
2021/06/29 14:20:48;;;;;;;9.55;5.68;;;;;;;21.98;68.31;92329.22;4791332;30;20545;-78
2021/06/29 14:23:33;;;;;;;11.20;5.63;;;;;;;21.92;68.87;92322.66;4772065;30;20051;-77
2021/06/29 14:25:59;;;;;;;11.07;5.68;;;;;;;21.88;68.67;92316.50;4772665;29;20773;-78
2021/06/29 14:28:25;;;;;;;13.88;5.57;;;;;;;22.20;67.73;92315.03;4790030;29;20055;-78
2021/06/29 14:30:51;;;;;;;8.70;5.10;;;;;;;22.14;65.92;92302.38;4775717;29;20089;-79
2021/06/29 14:33:17;;;;;;;12.75;5.53;;;;;;;22.20;68.85;92298.25;4770158;30;20051;-77
2021/06/29 14:35:43;;;;;;;13.77;5.40;;;;;;;22.39;70.29;92290.13;4770673;30;20059;-77
2021/06/29 14:38:12;;;;;;;14.45;5.10;;;;;;;22.19;67.97;92292.16;4771445;30;20044;-77
2021/06/29 14:40:38;;;;;;;12.00;5.10;;;;;;;21.33;67.56;92290.97;4757110;30;20055;-77
2021/06/29 14:43:04;;;;;;;13.75;5.53;;;;;;;20.71;70.42;92282.38;4771997;30;20417;-76
2021/06/29 14:45:30;;;;;;;10.20;5.10;;;;;;;20.81;70.79;92284.47;4787463;30;20829;-76
2021/06/29 14:47:56;;;;;;;12.50;5.70;;;;;;;20.76;69.72;92274.88;4791377;29;20055;-76
2021/06/29 14:50:22;;;;;;;12.93;5.65;;;;;;;20.78;71.68;92272.63;4771216;30;20146;-76
2021/06/29 14:52:49;;;;;;;12.68;5.38;;;;;;;20.77;72.03;92276.41;4771629;30;20047;-76
2021/06/29 14:55:15;;;;;;;9.52;5.57;;;;;;;20.76;73.47;92263.44;4790307;29;20051;-75
2021/06/29 14:57:41;;;;;;;12.60;6.70;;;;;;;20.74;75.06;92249.75;4786807;29;20510;-75
2021/06/29 15:00:13;;;;;;;14.82;5.97;;;;;;;20.77;74.89;92246.38;4804706;29;20099;-77
2021/06/29 15:02:39;;;;;;;11.27;6.78;;;;;;;20.63;78.66;92251.47;4804624;29;20050;-77
2021/06/29 15:05:07;;;;;;;10.00;5.95;;;;;;;20.57;77.11;92246.44;4772113;30;20079;-76
2021/06/29 15:07:34;;;;;;;12.70;5.85;;;;;;;20.47;76.50;92241.69;4788108;29;20035;-77
2021/06/29 15:09:59;;;;;;;11.98;5.75;;;;;;;20.42;75.34;92233.97;4788553;29;20070;-76
2021/06/29 15:12:25;;;;;;;11.43;5.70;;;;;;;20.41;76.12;92237.00;4774789;30;20086;-75
2021/06/29 15:14:51;;;;;;;17.42;7.07;;;;;;;20.34;77.69;92229.66;4776688;30;20055;-75
2021/06/29 15:17:17;;;;;;;10.52;6.40;;;;;;;20.28;77.70;92225.75;4786296;30;20044;-76
2021/06/29 15:19:43;;;;;;;12.27;6.10;;;;;;;20.25;77.56;92231.78;4789565;30;20392;-78
2021/06/29 15:22:08;;;;;;;15.13;6.45;;;;;;;20.23;78.24;92237.44;4792752;29;20054;-78
2021/06/29 15:24:35;;;;;;;13.15;5.82;;;;;;;20.21;77.49;92228.28;4806830;29;20112;-78
2021/06/29 15:27:00;;;;;;;12.60;5.95;;;;;;;20.20;76.78;92226.75;4809108;29;20124;-78
2021/06/29 15:29:29;;;;;;;14.13;6.03;;;;;;;20.15;76.45;92209.19;4808615;29;20062;-78
2021/06/29 15:31:57;;;;;;;12.32;6.18;;;;;;;20.11;78.05;92217.13;4808222;29;20055;-78
2021/06/29 15:34:23;;;;;;;12.77;5.60;;;;;;;20.08;76.85;92220.47;4800521;29;20039;-78
2021/06/29 15:36:48;;;;;;;13.23;5.78;;;;;;;20.08;76.48;92211.72;4790150;30;20146;-78
2021/06/29 15:39:14;;;;;;;11.75;5.22;;;;;;;20.08;75.67;92209.06;4788969;30;20511;-77
2021/06/29 15:41:42;;;;;;;10.23;5.00;;;;;;;20.06;75.77;92211.31;4794176;29;20059;-78
2021/06/29 15:44:07;;;;;;;9.48;5.60;;;;;;;20.06;76.34;92201.47;4789992;30;20065;-78
2021/06/29 15:46:33;;;;;;;15.65;6.10;;;;;;;20.08;76.80;92215.16;4788759;30;20085;-78
2021/06/29 15:48:59;;;;;;;10.52;5.95;;;;;;;20.08;77.58;92225.78;4772132;30;20063;-77
2021/06/29 15:51:25;;;;;;;12.90;6.43;;;;;;;20.09;78.09;92222.00;4792505;29;20063;-78
2021/06/29 15:53:51;;;;;;;11.35;6.07;;;;;;;20.04;78.08;92224.16;4777137;30;20411;-78
2021/06/29 15:56:36;;;;;;;11.80;6.47;;;;;;;19.99;79.80;92225.22;4798562;29;20413;-78
2021/06/29 15:59:03;;;;;;;15.82;5.70;;;;;;;19.89;75.86;92229.22;4807059;29;20047;-77
2021/06/29 16:01:31;;;;;;;13.15;5.60;;;;;;;19.76;76.41;92241.84;4776635;29;20157;-77
2021/06/29 16:03:56;;;;;;;9.05;5.50;;;;;;;19.68;76.60;92237.50;4791569;29;20129;-77
2021/06/29 16:06:22;;;;;;;21.75;7.22;;;;;;;19.62;77.54;92240.78;4791138;29;20587;-77
2021/06/29 16:08:48;;;;;;;13.43;5.78;;;;;;;19.61;77.67;92239.22;4773578;30;20047;-78
2021/06/29 16:11:13;;;;;;;15.93;5.53;;;;;;;19.50;76.09;92242.44;4773278;30;20058;-78
2021/06/29 16:13:39;;;;;;;11.75;5.15;;;;;;;19.09;75.81;92241.16;4789689;29;20039;-78
2021/06/29 16:16:05;;;;;;;9.77;4.90;;;;;;;19.10;74.54;92240.06;4773784;30;20054;-78
2021/06/29 16:18:32;;;;;;;12.45;4.95;;;;;;;19.10;75.41;92238.16;4788876;30;20150;-78
2021/06/29 16:20:58;;;;;;;12.35;5.45;;;;;;;19.06;77.01;92234.66;4787979;30;20051;-77
2021/06/29 16:23:24;;;;;;;10.82;5.20;;;;;;;18.90;76.96;92245.28;4778238;30;20055;-78
2021/06/29 16:25:50;;;;;;;14.55;6.65;;;;;;;18.90;79.94;92247.16;4789591;30;20139;-78
2021/06/29 16:28:16;;;;;;;8.82;6.07;;;;;;;18.93;80.26;92233.22;4788058;30;20502;-77
2021/06/29 16:30:42;;;;;;;14.45;6.32;;;;;;;18.97;80.99;92233.31;4771584;30;20039;-78
2021/06/29 16:33:09;;;;;;;13.65;5.47;;;;;;;18.97;79.28;92222.69;4789751;30;20567;-77
2021/06/29 16:35:35;;;;;;;10.75;5.60;;;;;;;18.94;78.22;92208.25;4758656;30;20056;-77
2021/06/29 16:38:01;;;;;;;10.52;5.28;;;;;;;18.92;77.58;92203.28;4753339;30;20051;-77
2021/06/29 16:40:32;;;;;;;9.73;5.15;;;;;;;18.96;78.14;92200.72;4753477;30;20055;-78
2021/06/29 16:42:58;;;;;;;11.27;5.15;;;;;;;18.94;77.99;92205.59;4768228;30;20052;-77
2021/06/29 16:45:24;;;;;;;12.95;5.95;;;;;;;18.77;79.53;92209.34;4753519;30;20044;-78
2021/06/29 16:47:50;;;;;;;10.77;5.65;;;;;;;18.20;78.38;92221.94;4776125;29;20558;-77
2021/06/29 16:50:15;;;;;;;9.25;5.70;;;;;;;17.89;82.49;92235.88;4787373;30;20135;-77
2021/06/29 16:52:41;;;;;;;10.60;5.82;;;;;;;17.89;80.34;92241.19;4780033;29;20055;-79
2021/06/29 16:55:09;;;;;;;11.68;6.20;;;;;;;18.00;80.77;92255.47;4794178;29;20043;-78
2021/06/29 16:57:35;;;;;;;10.52;5.93;;;;;;;18.09;81.75;92252.69;4785774;29;20050;-77
2021/06/29 17:00:01;;;;;;;10.73;5.90;;;;;;;18.02;82.22;92249.84;4788234;30;20120;-79
2021/06/29 17:02:27;;;;;;;11.13;6.20;;;;;;;17.96;81.54;92251.19;4787514;30;20039;-78
2021/06/29 17:04:53;;;;;;;11.40;6.07;;;;;;;17.93;81.05;92257.94;4798214;29;20093;-79
2021/06/29 17:07:20;;;;;;;17.02;5.88;;;;;;;17.95;82.06;92276.91;4787096;29;20075;-80
2021/06/29 17:09:46;;;;;;;13.60;6.57;;;;;;;17.96;82.52;92280.31;4790474;29;20464;-80
2021/06/29 17:12:11;;;;;;;13.07;5.97;;;;;;;17.93;82.66;92267.78;4789944;29;20058;-79
2021/06/29 17:14:56;;;;;;;12.35;6.20;;;;;;;17.95;83.40;92268.97;4791346;29;20061;-79
2021/06/29 17:17:22;;;;;;;14.48;6.40;;;;;;;17.97;83.22;92264.09;4793680;29;20058;-78
2021/06/29 17:19:48;;;;;;;11.05;5.93;;;;;;;17.95;83.04;92276.16;4806580;29;20452;-78
2021/06/29 17:22:15;;;;;;;13.15;6.28;;;;;;;17.98;83.78;92286.81;4795291;29;20118;-78
2021/06/29 17:24:40;;;;;;;10.90;5.93;;;;;;;17.98;83.49;92283.41;4810218;29;20483;-77
2021/06/29 17:27:06;;;;;;;12.48;6.50;;;;;;;17.98;83.73;92267.53;4789106;30;20100;-78
2021/06/29 17:29:32;;;;;;;14.32;6.28;;;;;;;17.98;83.96;92263.00;4774352;29;20055;-77
2021/06/29 17:31:59;;;;;;;13.68;5.97;;;;;;;17.99;83.54;92264.53;4788194;29;20117;-78
2021/06/29 17:34:25;;;;;;;14.45;6.63;;;;;;;18.01;84.53;92257.03;4795835;29;20039;-77
2021/06/29 17:36:51;;;;;;;10.43;6.53;;;;;;;18.01;83.83;92240.34;4796330;29;20055;-78
2021/06/29 17:39:16;;;;;;;12.82;6.85;;;;;;;17.96;84.00;92261.78;4772531;30;20075;-78
2021/06/29 17:41:43;;;;;;;12.70;6.70;;;;;;;17.84;85.09;92281.13;4775160;29;20082;-78
2021/06/29 17:44:08;;;;;;;12.95;6.40;;;;;;;17.81;84.73;92273.81;4795476;29;20066;-80
2021/06/29 17:46:34;;;;;;;16.63;6.30;;;;;;;17.78;83.80;92287.75;4792376;29;20469;-78
2021/06/29 17:49:00;;;;;;;13.32;5.63;;;;;;;17.85;82.55;92294.03;4774327;29;20063;-78
2021/06/29 17:51:26;;;;;;;13.25;6.10;;;;;;;17.74;81.95;92287.63;4778634;29;20130;-79
2021/06/29 17:53:52;;;;;;;11.68;6.18;;;;;;;17.68;82.27;92294.28;4793524;29;20125;-79
2021/06/29 17:56:18;;;;;;;10.65;4.85;;;;;;;17.55;77.83;92290.88;4789183;29;20052;-79
2021/06/29 17:58:49;;;;;;;9.90;5.32;;;;;;;17.47;79.74;92305.00;4789424;29;20032;-80
2021/06/29 18:01:16;;;;;;;9.40;5.03;;;;;;;17.42;79.64;92302.56;4802859;29;20046;-81
2021/06/29 18:03:42;;;;;;;15.70;5.45;;;;;;;17.41;81.11;92307.09;4799160;29;20715;-81
2021/06/29 18:06:08;;;;;;;13.50;6.20;;;;;;;17.40;82.02;92281.72;4799581;29;20052;-80
2021/06/29 18:08:36;;;;;;;10.93;6.70;;;;;;;17.41;82.30;92258.72;4791672;29;20051;-79
2021/06/29 18:11:06;;;;;;;12.63;6.80;;;;;;;17.43;82.78;92269.75;4809385;29;20083;-79
2021/06/29 18:13:32;;;;;;;16.85;7.05;;;;;;;17.46;83.04;92266.41;4791876;29;20138;-79
2021/06/29 18:15:57;;;;;;;15.27;7.22;;;;;;;17.48;83.84;92267.63;4789813;30;20172;-79
2021/06/29 18:18:24;;;;;;;19.60;7.60;;;;;;;17.47;84.09;92262.66;4791144;30;20070;-79
2021/06/29 18:20:50;;;;;;;13.07;6.53;;;;;;;17.48;83.14;92259.69;4774544;30;20047;-78
2021/06/29 18:23:16;;;;;;;14.32;6.93;;;;;;;17.51;82.85;92258.25;4779826;30;20522;-79
2021/06/29 18:25:42;;;;;;;12.80;6.80;;;;;;;17.56;82.91;92233.41;4774051;30;20078;-78
2021/06/29 18:28:08;;;;;;;12.38;6.13;;;;;;;17.63;83.34;92228.31;4774224;30;20047;-78
2021/06/29 18:30:34;;;;;;;12.90;6.75;;;;;;;17.69;82.79;92233.03;4790689;30;20054;-79
2021/06/29 18:33:02;;;;;;;12.73;6.53;;;;;;;17.77;83.65;92228.72;4774388;30;20051;-78
2021/06/29 18:35:28;;;;;;;16.35;7.00;;;;;;;17.81;83.18;92223.53;4785829;29;20054;-79
2021/06/29 18:37:55;;;;;;;12.15;6.18;;;;;;;17.86;84.07;92210.09;4793955;29;20502;-78
2021/06/29 18:40:21;;;;;;;10.65;6.22;;;;;;;17.88;83.33;92215.81;4775450;30;20399;-78